sensor_id;sensor_type;location;lat;lon;timestamp;temperature;humidity
2907;DHT22;1463;51.070;16.998;2024-02-26T00:01:50;6.50;99.90
2907;DHT22;1463;51.070;16.998;2024-02-26T00:04:18;6.40;99.90
2907;DHT22;1463;51.070;16.998;2024-02-26T00:06:44;6.30;99.90
2907;DHT22;1463;51.070;16.998;2024-02-26T00:09:11;6.20;99.90
2907;DHT22;1463;51.070;16.998;2024-02-26T00:11:38;6.10;99.90
2907;DHT22;1463;51.070;16.998;2024-02-26T00:14:05;6.20;99.90
2907;DHT22;1463;51.070;16.998;2024-02-26T00:16:32;6.20;99.90
2907;DHT22;1463;51.070;16.998;2024-02-26T00:19:00;6.20;99.90
2907;DHT22;1463;51.070;16.998;2024-02-26T00:21:28;6.10;99.90
2907;DHT22;1463;51.070;16.998;2024-02-26T00:23:55;6.00;99.90
2907;DHT22;1463;51.070;16.998;2024-02-26T00:26:21;5.90;99.90
2907;DHT22;1463;51.070;16.998;2024-02-26T00:28:48;5.80;99.90
2907;DHT22;1463;51.070;16.998;2024-02-26T00:31:15;5.90;99.90
2907;DHT22;1463;51.070;16.998;2024-02-26T00:33:42;5.90;99.90
2907;DHT22;1463;51.070;16.998;2024-02-26T00:36:09;5.90;99.90
2907;DHT22;1463;51.070;16.998;2024-02-26T00:38:36;5.80;99.90
2907;DHT22;1463;51.070;16.998;2024-02-26T00:41:03;5.80;99.90
2907;DHT22;1463;51.070;16.998;2024-02-26T00:43:30;5.90;99.90
2907;DHT22;1463;51.070;16.998;2024-02-26T00:45:56;5.90;99.90
2907;DHT22;1463;51.070;16.998;2024-02-26T00:48:23;5.90;99.90
2907;DHT22;1463;51.070;16.998;2024-02-26T00:50:51;5.80;99.90
2907;DHT22;1463;51.070;16.998;2024-02-26T00:53:19;5.80;99.90
2907;DHT22;1463;51.070;16.998;2024-02-26T00:55:46;5.90;99.90
2907;DHT22;1463;51.070;16.998;2024-02-26T00:58:13;5.80;99.90
2907;DHT22;1463;51.070;16.998;2024-02-26T01:00:39;6.00;99.90
2907;DHT22;1463;51.070;16.998;2024-02-26T01:03:06;6.00;99.90
2907;DHT22;1463;51.070;16.998;2024-02-26T01:05:33;6.00;99.90
2907;DHT22;1463;51.070;16.998;2024-02-26T01:08:00;6.00;99.90
2907;DHT22;1463;51.070;16.998;2024-02-26T01:10:28;6.00;99.90
2907;DHT22;1463;51.070;16.998;2024-02-26T01:12:54;6.00;99.90
2907;DHT22;1463;51.070;16.998;2024-02-26T01:15:21;6.00;99.90
2907;DHT22;1463;51.070;16.998;2024-02-26T01:17:49;6.00;99.90
2907;DHT22;1463;51.070;16.998;2024-02-26T01:20:16;6.10;99.90
2907;DHT22;1463;51.070;16.998;2024-02-26T01:22:43;6.00;99.90
2907;DHT22;1463;51.070;16.998;2024-02-26T01:25:10;5.90;99.90
2907;DHT22;1463;51.070;16.998;2024-02-26T01:27:39;6.00;99.90
2907;DHT22;1463;51.070;16.998;2024-02-26T01:30:07;5.90;99.90
2907;DHT22;1463;51.070;16.998;2024-02-26T01:32:34;5.90;99.90
2907;DHT22;1463;51.070;16.998;2024-02-26T01:35:02;5.90;99.90
2907;DHT22;1463;51.070;16.998;2024-02-26T01:37:30;5.90;99.90
2907;DHT22;1463;51.070;16.998;2024-02-26T01:39:57;6.00;99.90
2907;DHT22;1463;51.070;16.998;2024-02-26T01:42:24;5.90;99.90
2907;DHT22;1463;51.070;16.998;2024-02-26T01:44:52;5.90;99.90
2907;DHT22;1463;51.070;16.998;2024-02-26T01:47:19;5.90;99.90
2907;DHT22;1463;51.070;16.998;2024-02-26T01:49:46;5.90;99.90
2907;DHT22;1463;51.070;16.998;2024-02-26T01:52:13;5.90;99.90
2907;DHT22;1463;51.070;16.998;2024-02-26T01:54:40;5.90;99.90
2907;DHT22;1463;51.070;16.998;2024-02-26T01:57:08;5.80;99.90
2907;DHT22;1463;51.070;16.998;2024-02-26T01:59:35;5.80;99.90
2907;DHT22;1463;51.070;16.998;2024-02-26T02:02:04;5.80;99.90
2907;DHT22;1463;51.070;16.998;2024-02-26T02:04:32;5.80;99.90
2907;DHT22;1463;51.070;16.998;2024-02-26T02:07:00;5.90;99.90
2907;DHT22;1463;51.070;16.998;2024-02-26T02:09:27;5.90;99.90
2907;DHT22;1463;51.070;16.998;2024-02-26T02:11:54;5.90;99.90
2907;DHT22;1463;51.070;16.998;2024-02-26T02:14:21;5.70;99.90
2907;DHT22;1463;51.070;16.998;2024-02-26T02:16:48;5.80;99.90
2907;DHT22;1463;51.070;16.998;2024-02-26T02:19:16;5.90;99.90
2907;DHT22;1463;51.070;16.998;2024-02-26T02:21:44;5.80;99.90
2907;DHT22;1463;51.070;16.998;2024-02-26T02:24:11;5.70;99.90
2907;DHT22;1463;51.070;16.998;2024-02-26T02:26:38;5.80;99.90
2907;DHT22;1463;51.070;16.998;2024-02-26T02:29:06;5.70;99.90
2907;DHT22;1463;51.070;16.998;2024-02-26T02:31:33;5.70;99.90
2907;DHT22;1463;51.070;16.998;2024-02-26T02:34:00;5.80;99.90
2907;DHT22;1463;51.070;16.998;2024-02-26T02:36:28;5.80;99.90
2907;DHT22;1463;51.070;16.998;2024-02-26T02:38:56;5.70;99.90
2907;DHT22;1463;51.070;16.998;2024-02-26T02:41:22;5.70;99.90
2907;DHT22;1463;51.070;16.998;2024-02-26T02:43:49;5.70;99.90
2907;DHT22;1463;51.070;16.998;2024-02-26T02:46:16;5.60;99.90
2907;DHT22;1463;51.070;16.998;2024-02-26T02:48:43;5.60;99.90
2907;DHT22;1463;51.070;16.998;2024-02-26T02:51:09;5.50;99.90
2907;DHT22;1463;51.070;16.998;2024-02-26T02:53:36;5.60;99.90
2907;DHT22;1463;51.070;16.998;2024-02-26T02:56:05;5.60;99.90
2907;DHT22;1463;51.070;16.998;2024-02-26T02:58:32;5.60;99.90
2907;DHT22;1463;51.070;16.998;2024-02-26T03:00:59;5.60;99.90
2907;DHT22;1463;51.070;16.998;2024-02-26T03:03:26;5.70;99.90
2907;DHT22;1463;51.070;16.998;2024-02-26T03:05:54;5.70;99.90
2907;DHT22;1463;51.070;16.998;2024-02-26T03:08:21;5.70;99.90
2907;DHT22;1463;51.070;16.998;2024-02-26T03:10:49;5.70;99.90
2907;DHT22;1463;51.070;16.998;2024-02-26T03:13:17;5.60;99.90
2907;DHT22;1463;51.070;16.998;2024-02-26T03:15:44;5.70;99.90
2907;DHT22;1463;51.070;16.998;2024-02-26T03:18:11;5.60;99.90
2907;DHT22;1463;51.070;16.998;2024-02-26T03:20:37;5.70;99.90
2907;DHT22;1463;51.070;16.998;2024-02-26T03:23:04;5.70;99.90
2907;DHT22;1463;51.070;16.998;2024-02-26T03:25:31;5.60;99.90
2907;DHT22;1463;51.070;16.998;2024-02-26T03:27:58;5.70;99.90
2907;DHT22;1463;51.070;16.998;2024-02-26T03:30:26;5.60;99.90
2907;DHT22;1463;51.070;16.998;2024-02-26T03:32:53;5.50;99.90
2907;DHT22;1463;51.070;16.998;2024-02-26T03:35:19;5.60;99.90
2907;DHT22;1463;51.070;16.998;2024-02-26T03:37:46;5.40;99.90
2907;DHT22;1463;51.070;16.998;2024-02-26T03:40:16;5.40;99.90
2907;DHT22;1463;51.070;16.998;2024-02-26T03:42:44;5.40;99.90
2907;DHT22;1463;51.070;16.998;2024-02-26T03:45:11;5.40;99.90
2907;DHT22;1463;51.070;16.998;2024-02-26T03:47:39;5.40;99.90
2907;DHT22;1463;51.070;16.998;2024-02-26T03:50:07;5.40;99.90
2907;DHT22;1463;51.070;16.998;2024-02-26T03:52:34;5.40;99.90
2907;DHT22;1463;51.070;16.998;2024-02-26T03:55:01;5.30;99.90
2907;DHT22;1463;51.070;16.998;2024-02-26T03:57:27;5.50;99.90
2907;DHT22;1463;51.070;16.998;2024-02-26T03:59:54;5.20;99.90
2907;DHT22;1463;51.070;16.998;2024-02-26T04:02:21;5.20;99.90
2907;DHT22;1463;51.070;16.998;2024-02-26T04:04:50;5.10;99.90
2907;DHT22;1463;51.070;16.998;2024-02-26T04:07:16;5.20;99.90
2907;DHT22;1463;51.070;16.998;2024-02-26T04:09:44;5.10;99.90
2907;DHT22;1463;51.070;16.998;2024-02-26T04:12:10;5.10;99.90
2907;DHT22;1463;51.070;16.998;2024-02-26T04:14:37;5.20;99.90
2907;DHT22;1463;51.070;16.998;2024-02-26T04:17:04;5.10;99.90
2907;DHT22;1463;51.070;16.998;2024-02-26T04:19:31;5.10;99.90
2907;DHT22;1463;51.070;16.998;2024-02-26T04:21:59;5.10;99.90
2907;DHT22;1463;51.070;16.998;2024-02-26T04:24:26;5.20;99.90
2907;DHT22;1463;51.070;16.998;2024-02-26T04:26:53;5.30;99.90
2907;DHT22;1463;51.070;16.998;2024-02-26T04:29:19;5.20;99.90
2907;DHT22;1463;51.070;16.998;2024-02-26T04:31:46;5.20;99.90
2907;DHT22;1463;51.070;16.998;2024-02-26T04:34:13;5.20;99.90
2907;DHT22;1463;51.070;16.998;2024-02-26T04:36:40;5.10;99.90
2907;DHT22;1463;51.070;16.998;2024-02-26T04:39:09;5.10;99.90
2907;DHT22;1463;51.070;16.998;2024-02-26T04:41:36;5.10;99.90
2907;DHT22;1463;51.070;16.998;2024-02-26T04:44:03;5.20;99.90
2907;DHT22;1463;51.070;16.998;2024-02-26T04:46:30;5.20;99.90
2907;DHT22;1463;51.070;16.998;2024-02-26T04:48:57;5.10;99.90
2907;DHT22;1463;51.070;16.998;2024-02-26T04:51:24;5.10;99.90
2907;DHT22;1463;51.070;16.998;2024-02-26T04:53:51;5.10;99.90
2907;DHT22;1463;51.070;16.998;2024-02-26T04:56:20;5.00;99.90
2907;DHT22;1463;51.070;16.998;2024-02-26T04:58:47;4.90;99.90
2907;DHT22;1463;51.070;16.998;2024-02-26T05:01:15;4.80;99.90
2907;DHT22;1463;51.070;16.998;2024-02-26T05:03:42;4.90;99.90
2907;DHT22;1463;51.070;16.998;2024-02-26T05:06:09;4.90;99.90
2907;DHT22;1463;51.070;16.998;2024-02-26T05:08:36;4.80;99.90
2907;DHT22;1463;51.070;16.998;2024-02-26T05:11:07;4.80;99.90
2907;DHT22;1463;51.070;16.998;2024-02-26T05:13:35;4.80;99.90
2907;DHT22;1463;51.070;16.998;2024-02-26T05:16:02;4.80;99.90
2907;DHT22;1463;51.070;16.998;2024-02-26T05:18:29;4.80;99.90
2907;DHT22;1463;51.070;16.998;2024-02-26T05:20:56;4.80;99.90
2907;DHT22;1463;51.070;16.998;2024-02-26T05:23:23;4.90;99.90
2907;DHT22;1463;51.070;16.998;2024-02-26T05:25:49;4.80;99.90
2907;DHT22;1463;51.070;16.998;2024-02-26T05:28:16;4.80;99.90
2907;DHT22;1463;51.070;16.998;2024-02-26T05:30:47;4.80;99.90
2907;DHT22;1463;51.070;16.998;2024-02-26T05:33:14;4.90;99.90
2907;DHT22;1463;51.070;16.998;2024-02-26T05:35:41;4.80;99.90
2907;DHT22;1463;51.070;16.998;2024-02-26T05:38:08;4.80;99.90
2907;DHT22;1463;51.070;16.998;2024-02-26T05:40:34;4.80;99.90
2907;DHT22;1463;51.070;16.998;2024-02-26T05:43:02;4.80;99.90
2907;DHT22;1463;51.070;16.998;2024-02-26T05:45:28;4.80;99.90
2907;DHT22;1463;51.070;16.998;2024-02-26T05:47:57;4.80;99.90
2907;DHT22;1463;51.070;16.998;2024-02-26T05:50:23;4.80;99.90
2907;DHT22;1463;51.070;16.998;2024-02-26T05:52:51;4.90;99.90
2907;DHT22;1463;51.070;16.998;2024-02-26T05:55:20;4.80;99.90
2907;DHT22;1463;51.070;16.998;2024-02-26T05:57:47;4.90;99.90
2907;DHT22;1463;51.070;16.998;2024-02-26T06:00:15;4.80;99.90
2907;DHT22;1463;51.070;16.998;2024-02-26T06:02:45;4.80;99.90
2907;DHT22;1463;51.070;16.998;2024-02-26T06:05:15;4.90;99.90
2907;DHT22;1463;51.070;16.998;2024-02-26T06:07:47;5.00;99.90
2907;DHT22;1463;51.070;16.998;2024-02-26T06:10:14;4.90;99.90
2907;DHT22;1463;51.070;16.998;2024-02-26T06:12:41;5.00;99.90
2907;DHT22;1463;51.070;16.998;2024-02-26T06:15:13;4.80;99.90
2907;DHT22;1463;51.070;16.998;2024-02-26T06:17:40;4.90;99.90
2907;DHT22;1463;51.070;16.998;2024-02-26T06:20:07;4.90;99.90
2907;DHT22;1463;51.070;16.998;2024-02-26T06:22:39;4.90;99.90
2907;DHT22;1463;51.070;16.998;2024-02-26T06:25:07;4.90;99.90
2907;DHT22;1463;51.070;16.998;2024-02-26T06:27:34;4.90;99.90
2907;DHT22;1463;51.070;16.998;2024-02-26T06:30:01;5.00;99.90
2907;DHT22;1463;51.070;16.998;2024-02-26T06:32:28;5.00;99.90
2907;DHT22;1463;51.070;16.998;2024-02-26T06:34:55;5.20;99.90
2907;DHT22;1463;51.070;16.998;2024-02-26T06:37:22;5.20;99.90
2907;DHT22;1463;51.070;16.998;2024-02-26T06:39:50;5.30;99.90
2907;DHT22;1463;51.070;16.998;2024-02-26T06:42:18;5.30;99.90
2907;DHT22;1463;51.070;16.998;2024-02-26T06:44:44;5.30;99.90
2907;DHT22;1463;51.070;16.998;2024-02-26T06:47:11;5.30;99.90
2907;DHT22;1463;51.070;16.998;2024-02-26T06:49:38;5.40;99.90
2907;DHT22;1463;51.070;16.998;2024-02-26T06:52:05;5.40;99.90
2907;DHT22;1463;51.070;16.998;2024-02-26T06:54:32;5.40;99.90
2907;DHT22;1463;51.070;16.998;2024-02-26T06:57:00;5.40;99.90
2907;DHT22;1463;51.070;16.998;2024-02-26T06:59:27;5.40;99.90
2907;DHT22;1463;51.070;16.998;2024-02-26T07:01:54;5.40;99.90
2907;DHT22;1463;51.070;16.998;2024-02-26T07:04:22;5.60;99.90
2907;DHT22;1463;51.070;16.998;2024-02-26T07:06:49;5.70;99.90
2907;DHT22;1463;51.070;16.998;2024-02-26T07:09:16;5.80;99.90
2907;DHT22;1463;51.070;16.998;2024-02-26T07:11:45;5.90;99.90
2907;DHT22;1463;51.070;16.998;2024-02-26T07:14:14;5.90;99.90
2907;DHT22;1463;51.070;16.998;2024-02-26T07:16:40;6.10;99.90
2907;DHT22;1463;51.070;16.998;2024-02-26T07:19:07;6.20;99.90
2907;DHT22;1463;51.070;16.998;2024-02-26T07:21:34;6.30;99.90
2907;DHT22;1463;51.070;16.998;2024-02-26T07:24:01;6.40;99.90
2907;DHT22;1463;51.070;16.998;2024-02-26T07:26:27;6.50;99.90
2907;DHT22;1463;51.070;16.998;2024-02-26T07:28:56;6.70;99.90
2907;DHT22;1463;51.070;16.998;2024-02-26T07:31:24;6.80;99.90
2907;DHT22;1463;51.070;16.998;2024-02-26T07:33:51;6.90;99.90
2907;DHT22;1463;51.070;16.998;2024-02-26T07:36:18;7.00;99.90
2907;DHT22;1463;51.070;16.998;2024-02-26T07:38:44;7.20;99.90
2907;DHT22;1463;51.070;16.998;2024-02-26T07:41:11;7.50;99.90
2907;DHT22;1463;51.070;16.998;2024-02-26T07:43:38;7.50;99.90
2907;DHT22;1463;51.070;16.998;2024-02-26T07:46:11;7.50;99.90
2907;DHT22;1463;51.070;16.998;2024-02-26T07:48:39;7.50;99.90
2907;DHT22;1463;51.070;16.998;2024-02-26T07:51:06;7.80;99.90
2907;DHT22;1463;51.070;16.998;2024-02-26T07:53:33;7.90;99.90
2907;DHT22;1463;51.070;16.998;2024-02-26T07:56:00;8.10;99.90
2907;DHT22;1463;51.070;16.998;2024-02-26T07:58:27;8.20;99.90
2907;DHT22;1463;51.070;16.998;2024-02-26T08:00:56;8.40;99.90
2907;DHT22;1463;51.070;16.998;2024-02-26T08:03:22;9.10;99.90
2907;DHT22;1463;51.070;16.998;2024-02-26T08:05:51;9.70;99.90
2907;DHT22;1463;51.070;16.998;2024-02-26T08:08:18;10.00;99.90
2907;DHT22;1463;51.070;16.998;2024-02-26T08:10:44;10.20;99.90
2907;DHT22;1463;51.070;16.998;2024-02-26T08:13:11;10.20;99.90
2907;DHT22;1463;51.070;16.998;2024-02-26T08:15:38;9.90;99.90
2907;DHT22;1463;51.070;16.998;2024-02-26T08:18:04;10.10;99.90
2907;DHT22;1463;51.070;16.998;2024-02-26T08:20:32;10.70;99.90
2907;DHT22;1463;51.070;16.998;2024-02-26T08:23:00;10.90;99.90
2907;DHT22;1463;51.070;16.998;2024-02-26T08:25:27;10.40;99.90
2907;DHT22;1463;51.070;16.998;2024-02-26T08:27:54;9.80;99.90
2907;DHT22;1463;51.070;16.998;2024-02-26T08:30:21;9.60;99.90
2907;DHT22;1463;51.070;16.998;2024-02-26T08:32:47;9.50;99.90
2907;DHT22;1463;51.070;16.998;2024-02-26T08:35:14;9.40;99.90
2907;DHT22;1463;51.070;16.998;2024-02-26T08:37:44;9.30;99.90
2907;DHT22;1463;51.070;16.998;2024-02-26T08:40:12;9.40;99.90
2907;DHT22;1463;51.070;16.998;2024-02-26T08:42:39;9.40;99.90
2907;DHT22;1463;51.070;16.998;2024-02-26T08:45:07;9.40;99.90
2907;DHT22;1463;51.070;16.998;2024-02-26T08:47:34;9.30;99.90
2907;DHT22;1463;51.070;16.998;2024-02-26T08:50:01;9.40;99.90
2907;DHT22;1463;51.070;16.998;2024-02-26T08:52:27;9.30;99.90
2907;DHT22;1463;51.070;16.998;2024-02-26T08:54:54;9.40;99.90
2907;DHT22;1463;51.070;16.998;2024-02-26T08:57:22;9.50;99.90
2907;DHT22;1463;51.070;16.998;2024-02-26T08:59:49;9.40;99.90
2907;DHT22;1463;51.070;16.998;2024-02-26T09:02:16;9.50;99.90
2907;DHT22;1463;51.070;16.998;2024-02-26T09:04:45;9.50;99.90
2907;DHT22;1463;51.070;16.998;2024-02-26T09:07:11;9.50;99.90
2907;DHT22;1463;51.070;16.998;2024-02-26T09:09:38;9.60;99.90
2907;DHT22;1463;51.070;16.998;2024-02-26T09:12:06;9.70;99.90
2907;DHT22;1463;51.070;16.998;2024-02-26T09:14:34;9.70;99.90
2907;DHT22;1463;51.070;16.998;2024-02-26T09:17:00;9.80;99.90
2907;DHT22;1463;51.070;16.998;2024-02-26T09:19:27;9.80;99.90
2907;DHT22;1463;51.070;16.998;2024-02-26T09:21:54;10.00;99.90
2907;DHT22;1463;51.070;16.998;2024-02-26T09:24:23;10.10;99.90
2907;DHT22;1463;51.070;16.998;2024-02-26T09:26:50;10.10;99.90
2907;DHT22;1463;51.070;16.998;2024-02-26T09:29:17;10.10;99.90
2907;DHT22;1463;51.070;16.998;2024-02-26T09:31:45;10.20;99.90
2907;DHT22;1463;51.070;16.998;2024-02-26T09:34:13;10.30;99.90
2907;DHT22;1463;51.070;16.998;2024-02-26T09:36:40;10.30;99.90
2907;DHT22;1463;51.070;16.998;2024-02-26T09:39:07;10.30;99.90
2907;DHT22;1463;51.070;16.998;2024-02-26T09:41:37;10.40;99.90
2907;DHT22;1463;51.070;16.998;2024-02-26T09:44:05;10.30;99.90
2907;DHT22;1463;51.070;16.998;2024-02-26T09:46:33;10.40;99.90
2907;DHT22;1463;51.070;16.998;2024-02-26T09:49:02;10.50;99.90
2907;DHT22;1463;51.070;16.998;2024-02-26T09:51:29;10.70;99.90
2907;DHT22;1463;51.070;16.998;2024-02-26T09:53:59;10.70;99.90
2907;DHT22;1463;51.070;16.998;2024-02-26T09:56:27;10.80;99.90
2907;DHT22;1463;51.070;16.998;2024-02-26T09:58:56;10.80;99.90
2907;DHT22;1463;51.070;16.998;2024-02-26T10:01:24;10.80;99.90
2907;DHT22;1463;51.070;16.998;2024-02-26T10:03:54;10.70;99.90
2907;DHT22;1463;51.070;16.998;2024-02-26T10:06:23;10.90;99.90
2907;DHT22;1463;51.070;16.998;2024-02-26T10:08:51;11.00;99.90
2907;DHT22;1463;51.070;16.998;2024-02-26T10:11:19;11.00;99.90
2907;DHT22;1463;51.070;16.998;2024-02-26T10:13:47;11.00;99.90
2907;DHT22;1463;51.070;16.998;2024-02-26T10:16:14;10.90;99.90
2907;DHT22;1463;51.070;16.998;2024-02-26T10:18:46;11.10;99.90
2907;DHT22;1463;51.070;16.998;2024-02-26T10:21:13;11.20;99.90
2907;DHT22;1463;51.070;16.998;2024-02-26T10:23:43;11.20;99.90
2907;DHT22;1463;51.070;16.998;2024-02-26T10:26:11;11.20;99.90
2907;DHT22;1463;51.070;16.998;2024-02-26T10:28:39;11.40;99.90
2907;DHT22;1463;51.070;16.998;2024-02-26T10:31:06;11.40;99.90
2907;DHT22;1463;51.070;16.998;2024-02-26T10:33:33;11.50;99.90
2907;DHT22;1463;51.070;16.998;2024-02-26T10:36:01;11.70;99.90
2907;DHT22;1463;51.070;16.998;2024-02-26T10:38:29;11.80;99.90
2907;DHT22;1463;51.070;16.998;2024-02-26T10:40:57;11.70;99.90
2907;DHT22;1463;51.070;16.998;2024-02-26T10:43:25;11.90;99.90
2907;DHT22;1463;51.070;16.998;2024-02-26T10:45:54;14.50;99.90
2907;DHT22;1463;51.070;16.998;2024-02-26T10:48:21;14.70;99.90
2907;DHT22;1463;51.070;16.998;2024-02-26T10:50:48;17.20;99.90
2907;DHT22;1463;51.070;16.998;2024-02-26T10:53:17;17.60;99.90
2907;DHT22;1463;51.070;16.998;2024-02-26T10:55:54;17.70;99.90
2907;DHT22;1463;51.070;16.998;2024-02-26T10:58:23;17.30;99.20
2907;DHT22;1463;51.070;16.998;2024-02-26T11:00:51;17.00;99.90
2907;DHT22;1463;51.070;16.998;2024-02-26T11:03:19;17.40;99.00
2907;DHT22;1463;51.070;16.998;2024-02-26T11:05:48;18.10;97.10
2907;DHT22;1463;51.070;16.998;2024-02-26T11:08:16;17.80;96.10
2907;DHT22;1463;51.070;16.998;2024-02-26T11:10:47;18.20;95.90
2907;DHT22;1463;51.070;16.998;2024-02-26T11:13:15;16.90;95.50
2907;DHT22;1463;51.070;16.998;2024-02-26T11:15:46;16.40;96.50
2907;DHT22;1463;51.070;16.998;2024-02-26T11:18:15;15.60;97.00
2907;DHT22;1463;51.070;16.998;2024-02-26T11:20:42;15.30;98.30
2907;DHT22;1463;51.070;16.998;2024-02-26T11:23:09;14.80;99.20
2907;DHT22;1463;51.070;16.998;2024-02-26T11:25:36;14.90;99.90
2907;DHT22;1463;51.070;16.998;2024-02-26T11:28:08;15.40;99.90
2907;DHT22;1463;51.070;16.998;2024-02-26T11:30:43;15.00;99.50
2907;DHT22;1463;51.070;16.998;2024-02-26T11:33:16;14.90;99.30
2907;DHT22;1463;51.070;16.998;2024-02-26T11:35:46;15.00;99.70
2907;DHT22;1463;51.070;16.998;2024-02-26T11:38:21;14.50;99.90
2907;DHT22;1463;51.070;16.998;2024-02-26T11:40:48;14.60;99.90
2907;DHT22;1463;51.070;16.998;2024-02-26T11:43:16;14.60;99.90
2907;DHT22;1463;51.070;16.998;2024-02-26T11:45:50;14.60;99.90
2907;DHT22;1463;51.070;16.998;2024-02-26T11:48:23;14.60;99.90
2907;DHT22;1463;51.070;16.998;2024-02-26T11:50:51;14.60;99.80
2907;DHT22;1463;51.070;16.998;2024-02-26T11:53:23;14.80;99.90
2907;DHT22;1463;51.070;16.998;2024-02-26T11:56:12;14.80;99.90
2907;DHT22;1463;51.070;16.998;2024-02-26T11:58:39;14.60;99.90
2907;DHT22;1463;51.070;16.998;2024-02-26T12:01:06;14.30;99.90
2907;DHT22;1463;51.070;16.998;2024-02-26T12:03:56;14.50;99.90
2907;DHT22;1463;51.070;16.998;2024-02-26T12:06:24;14.70;99.90
2907;DHT22;1463;51.070;16.998;2024-02-26T12:08:52;14.50;99.90
2907;DHT22;1463;51.070;16.998;2024-02-26T12:11:20;14.50;99.90
2907;DHT22;1463;51.070;16.998;2024-02-26T12:13:47;14.30;99.90
2907;DHT22;1463;51.070;16.998;2024-02-26T12:16:34;14.40;99.90
2907;DHT22;1463;51.070;16.998;2024-02-26T12:19:04;14.60;99.90
2907;DHT22;1463;51.070;16.998;2024-02-26T12:21:33;14.90;99.90
2907;DHT22;1463;51.070;16.998;2024-02-26T12:24:10;14.60;99.90
2907;DHT22;1463;51.070;16.998;2024-02-26T12:26:37;14.30;99.50
2907;DHT22;1463;51.070;16.998;2024-02-26T12:29:04;14.00;98.80
2907;DHT22;1463;51.070;16.998;2024-02-26T12:31:31;14.40;99.50
2907;DHT22;1463;51.070;16.998;2024-02-26T12:33:58;14.30;98.80
2907;DHT22;1463;51.070;16.998;2024-02-26T12:36:27;14.50;99.30
2907;DHT22;1463;51.070;16.998;2024-02-26T12:38:54;14.70;99.10
2907;DHT22;1463;51.070;16.998;2024-02-26T12:41:21;14.60;98.80
2907;DHT22;1463;51.070;16.998;2024-02-26T12:43:49;14.60;98.90
2907;DHT22;1463;51.070;16.998;2024-02-26T12:46:16;14.60;99.10
2907;DHT22;1463;51.070;16.998;2024-02-26T12:48:43;14.30;99.00
2907;DHT22;1463;51.070;16.998;2024-02-26T12:51:11;14.30;99.00
2907;DHT22;1463;51.070;16.998;2024-02-26T12:53:40;14.30;99.30
2907;DHT22;1463;51.070;16.998;2024-02-26T12:56:09;14.20;99.70
2907;DHT22;1463;51.070;16.998;2024-02-26T12:58:37;14.30;99.90
2907;DHT22;1463;51.070;16.998;2024-02-26T13:01:05;14.00;99.90
2907;DHT22;1463;51.070;16.998;2024-02-26T13:03:33;13.70;99.90
2907;DHT22;1463;51.070;16.998;2024-02-26T13:06:01;13.80;99.90
2907;DHT22;1463;51.070;16.998;2024-02-26T13:08:28;13.90;99.90
2907;DHT22;1463;51.070;16.998;2024-02-26T13:10:56;14.10;99.90
2907;DHT22;1463;51.070;16.998;2024-02-26T13:13:25;14.20;99.90
2907;DHT22;1463;51.070;16.998;2024-02-26T13:16:01;14.20;99.80
2907;DHT22;1463;51.070;16.998;2024-02-26T13:18:29;14.30;99.90
2907;DHT22;1463;51.070;16.998;2024-02-26T13:21:09;14.40;99.70
2907;DHT22;1463;51.070;16.998;2024-02-26T13:23:37;14.50;99.40
2907;DHT22;1463;51.070;16.998;2024-02-26T13:26:05;14.40;99.80
2907;DHT22;1463;51.070;16.998;2024-02-26T13:28:32;14.10;99.90
2907;DHT22;1463;51.070;16.998;2024-02-26T13:30:59;14.20;99.90
2907;DHT22;1463;51.070;16.998;2024-02-26T13:33:27;14.20;99.90
2907;DHT22;1463;51.070;16.998;2024-02-26T13:35:56;14.00;99.90
2907;DHT22;1463;51.070;16.998;2024-02-26T13:38:23;13.90;99.90
2907;DHT22;1463;51.070;16.998;2024-02-26T13:40:50;13.90;99.90
2907;DHT22;1463;51.070;16.998;2024-02-26T13:43:19;13.90;99.90
2907;DHT22;1463;51.070;16.998;2024-02-26T13:45:46;13.90;99.90
2907;DHT22;1463;51.070;16.998;2024-02-26T13:48:14;13.90;99.90
2907;DHT22;1463;51.070;16.998;2024-02-26T13:50:41;13.70;99.90
2907;DHT22;1463;51.070;16.998;2024-02-26T13:53:11;13.70;99.90
2907;DHT22;1463;51.070;16.998;2024-02-26T13:55:38;13.70;99.90
2907;DHT22;1463;51.070;16.998;2024-02-26T13:58:08;13.70;99.90
2907;DHT22;1463;51.070;16.998;2024-02-26T14:00:36;13.70;99.90
2907;DHT22;1463;51.070;16.998;2024-02-26T14:03:03;13.60;99.90
2907;DHT22;1463;51.070;16.998;2024-02-26T14:05:30;13.60;99.90
2907;DHT22;1463;51.070;16.998;2024-02-26T14:07:57;13.50;99.90
2907;DHT22;1463;51.070;16.998;2024-02-26T14:10:24;13.60;99.90
2907;DHT22;1463;51.070;16.998;2024-02-26T14:12:51;13.60;99.90
2907;DHT22;1463;51.070;16.998;2024-02-26T14:15:18;13.50;99.90
2907;DHT22;1463;51.070;16.998;2024-02-26T14:17:46;13.50;99.90
2907;DHT22;1463;51.070;16.998;2024-02-26T14:20:19;13.50;99.90
2907;DHT22;1463;51.070;16.998;2024-02-26T14:22:46;13.50;99.90
2907;DHT22;1463;51.070;16.998;2024-02-26T14:25:13;13.50;99.90
2907;DHT22;1463;51.070;16.998;2024-02-26T14:27:39;13.40;99.90
2907;DHT22;1463;51.070;16.998;2024-02-26T14:30:07;13.40;99.90
2907;DHT22;1463;51.070;16.998;2024-02-26T14:32:34;13.40;99.90
2907;DHT22;1463;51.070;16.998;2024-02-26T14:35:05;13.30;99.90
2907;DHT22;1463;51.070;16.998;2024-02-26T14:37:33;13.30;99.90
2907;DHT22;1463;51.070;16.998;2024-02-26T14:40:00;13.30;99.90
2907;DHT22;1463;51.070;16.998;2024-02-26T14:42:26;13.20;99.90
2907;DHT22;1463;51.070;16.998;2024-02-26T14:44:53;13.20;99.90
2907;DHT22;1463;51.070;16.998;2024-02-26T14:47:20;13.20;99.90
2907;DHT22;1463;51.070;16.998;2024-02-26T14:49:47;13.20;99.90
2907;DHT22;1463;51.070;16.998;2024-02-26T14:52:15;13.20;99.90
2907;DHT22;1463;51.070;16.998;2024-02-26T14:54:42;13.30;99.90
2907;DHT22;1463;51.070;16.998;2024-02-26T14:57:09;13.30;99.90
2907;DHT22;1463;51.070;16.998;2024-02-26T14:59:35;13.30;99.90
2907;DHT22;1463;51.070;16.998;2024-02-26T15:02:03;13.30;99.90
2907;DHT22;1463;51.070;16.998;2024-02-26T15:04:32;13.20;99.90
2907;DHT22;1463;51.070;16.998;2024-02-26T15:07:07;13.20;99.90
2907;DHT22;1463;51.070;16.998;2024-02-26T15:09:43;13.30;99.90
2907;DHT22;1463;51.070;16.998;2024-02-26T15:12:10;13.20;99.90
2907;DHT22;1463;51.070;16.998;2024-02-26T15:14:37;13.20;99.90
2907;DHT22;1463;51.070;16.998;2024-02-26T15:17:06;13.30;99.90
2907;DHT22;1463;51.070;16.998;2024-02-26T15:19:36;13.30;99.90
2907;DHT22;1463;51.070;16.998;2024-02-26T15:22:03;13.30;99.90
2907;DHT22;1463;51.070;16.998;2024-02-26T15:24:30;13.20;99.90
2907;DHT22;1463;51.070;16.998;2024-02-26T15:26:58;13.20;99.90
2907;DHT22;1463;51.070;16.998;2024-02-26T15:29:26;13.20;99.90
2907;DHT22;1463;51.070;16.998;2024-02-26T15:31:53;13.20;99.90
2907;DHT22;1463;51.070;16.998;2024-02-26T15:34:20;13.20;99.90
2907;DHT22;1463;51.070;16.998;2024-02-26T15:36:47;13.20;99.90
2907;DHT22;1463;51.070;16.998;2024-02-26T15:39:16;13.20;99.90
2907;DHT22;1463;51.070;16.998;2024-02-26T15:41:46;13.20;99.90
2907;DHT22;1463;51.070;16.998;2024-02-26T15:44:14;13.10;99.90
2907;DHT22;1463;51.070;16.998;2024-02-26T15:46:41;13.10;99.90
2907;DHT22;1463;51.070;16.998;2024-02-26T15:49:08;13.10;99.90
2907;DHT22;1463;51.070;16.998;2024-02-26T15:51:35;13.10;99.90
2907;DHT22;1463;51.070;16.998;2024-02-26T15:54:02;13.10;99.90
2907;DHT22;1463;51.070;16.998;2024-02-26T15:56:29;13.10;99.90
2907;DHT22;1463;51.070;16.998;2024-02-26T15:59:02;13.00;99.90